Skip to main content.
 TIME   TEMPERATURE   WINDSPEED   DIRECTION   HUMIDITY   BAROMETER   RAINFALL 
3:55 17.0°C (62.6°F) 14.8 kmh (9.2 mph) WNW 82% 1016.9hPa (30.03 inHg) 0.0mm (0.00 in.)
2:55 17.0°C (62.6 °F) 7.4 kmh (4.6 mph) WNW 82% 1016.9hPa (30.03 inHg) 0.0mm (0.00 in.)
1:55 17.0°C (62.6 °F) 13.0 kmh (8.1 mph) WNW 88% 1016.9hPa (30.03 inHg) 0.0mm (0.00 in.)
12:55 17.0°C (62.6 °F) 13.0 kmh (8.1 mph) W 88% 1017.9hPa (30.06 inHg) 0.0mm (0.00 in.)
11:55 18.0°C (64.4 °F) 11.1 kmh (6.9 mph) WSW 77% 1017.9hPa (30.06 inHg) 0.0mm (0.00 in.)
10:55 19.0°C (66.2 °F) 11.1 kmh (6.9 mph) S 68% 1017.9hPa (30.06 inHg) 0.0mm (0.00 in.)
9:55 19.0°C (66.2 °F) 13.0 kmh (8.1 mph) S 68% 1016.9hPa (30.03 inHg) 0.0mm (0.00 in.)
8:55 21.0°C (69.8 °F) 3.7 kmh (2.3 mph) NNW 43% 1016.9hPa (30.03 inHg) 0.0mm (0.00 in.)
7:55 21.0°C (69.8 °F) 11.1 kmh (6.9 mph) NNW 49% 1016.9hPa (30.03 inHg) 0.0mm (0.00 in.)
6:55 24.0°C (75.2 °F) 18.5 kmh (11.5 mph) NW 33% 1016.9hPa (30.03 inHg) 0.0mm (0.00 in.)
5:55 24.0°C (75.2 °F) 14.8 kmh (9.2 mph) NNW 31% 1016.9hPa (30.03 inHg) 0.0mm (0.00 in.)
4:55 24.0°C (75.2 °F) 20.4 kmh (12.7 mph) N 27% 1016.9hPa (30.03 inHg) 0.0mm (0.00 in.)
3:55 24.0°C (75.2 °F) 18.5 kmh (11.5 mph) N 27% 1016.9hPa (30.03 inHg) 0.0mm (0.00 in.)
2:55 25.0°C (77.0 °F) 18.5 kmh (11.5 mph) N 27% 1016.9hPa (30.03 inHg) 0.0mm (0.00 in.)
1:55 24.0°C (75.2 °F) 18.5 kmh (11.5 mph) NNE 33% 1016.9hPa (30.03 inHg) 0.0mm (0.00 in.)
12:55 23.0°C (73.4 °F) 13.0 kmh (8.1 mph) NNE 38% 1017.9hPa (30.06 inHg) 0.0mm (0.00 in.)
11:55 22.0°C (71.6 °F) 7.4 kmh (4.6 mph) N 37% 1017.9hPa (30.06 inHg) 0.0mm (0.00 in.)
10:55 22.0°C (71.6 °F) 14.8 kmh (9.2 mph) N 40% 1017.9hPa (30.06 inHg) 0.0mm (0.00 in.)
9:55 19.0°C (66.2 °F) 14.8 kmh (9.2 mph) NNW 52% 1017.9hPa (30.06 inHg) 0.0mm (0.00 in.)
8:55 18.0°C (64.4 °F) 9.3 kmh (5.8 mph) NNW 63% 1017.9hPa (30.06 inHg) 0.0mm (0.00 in.)
7:55 17.0°C (62.6 °F) 3.7 kmh (2.3 mph) NW 72% 1017.9hPa (30.06 inHg) 0.0mm (0.00 in.)
6:55 17.0°C (62.6 °F) 9.3 kmh (5.8 mph) NW 67% 1016.9hPa (30.03 inHg) 0.0mm (0.00 in.)
5:55 17.0°C (62.6 °F) 11.1 kmh (6.9 mph) W 63% 1016.9hPa (30.03 inHg) 0.0mm (0.00 in.)
4:55 17.0°C (62.6 °F) 13.0 kmh (8.1 mph) W 63% 1016.9hPa (30.03 inHg) 0.0mm (0.00 in.)